sensor_id;sensor_type;location;lat;lon;timestamp;pressure;altitude;pressure_sealevel;temperature;humidity
55317;BME280;41178;48.956;8.130;2023-02-22T00:03:56;99403.78;;;7.53;48.12
55317;BME280;41178;48.956;8.130;2023-02-22T00:08:58;99434.66;;;7.62;48.07
55317;BME280;41178;48.956;8.130;2023-02-22T00:14:01;99436.81;;;7.67;47.70
55317;BME280;41178;48.956;8.130;2023-02-22T00:19:02;99447.41;;;8.15;46.59
55317;BME280;41178;48.956;8.130;2023-02-22T00:24:06;99322.28;;;6.32;49.89
55317;BME280;41178;48.956;8.130;2023-02-22T00:29:24;99406.72;;;8.97;46.01
55317;BME280;41178;48.956;8.130;2023-02-22T00:34:26;99372.25;;;6.86;48.71
55317;BME280;41178;48.956;8.130;2023-02-22T00:39:27;99404.59;;;7.14;48.67
55317;BME280;41178;48.956;8.130;2023-02-22T00:44:30;99369.59;;;6.77;50.36
55317;BME280;41178;48.956;8.130;2023-02-22T00:49:33;99371.25;;;6.62;50.51
55317;BME280;41178;48.956;8.130;2023-02-22T00:54:35;99402.31;;;7.42;49.22
55317;BME280;41178;48.956;8.130;2023-02-22T00:59:37;99380.63;;;7.53;50.58
55317;BME280;41178;48.956;8.130;2023-02-22T01:04:38;99390.38;;;8.24;47.95
55317;BME280;41178;48.956;8.130;2023-02-22T01:09:40;99421.47;;;7.38;47.92
55317;BME280;41178;48.956;8.130;2023-02-22T01:14:42;99325.59;;;6.01;51.44
55317;BME280;41178;48.956;8.130;2023-02-22T01:19:44;99406.94;;;7.48;48.88
55317;BME280;41178;48.956;8.130;2023-02-22T01:24:47;99395.31;;;6.93;49.61
55317;BME280;41178;48.956;8.130;2023-02-22T01:29:49;99380.13;;;7.81;48.27
55317;BME280;41178;48.956;8.130;2023-02-22T01:34:54;99362.25;;;6.63;50.01
55317;BME280;41178;48.956;8.130;2023-02-22T01:39:55;99391.59;;;7.59;48.00
55317;BME280;41178;48.956;8.130;2023-02-22T01:50:32;99374.94;;;7.88;47.99
55317;BME280;41178;48.956;8.130;2023-02-22T01:55:35;99395.16;;;7.43;48.48
55317;BME280;41178;48.956;8.130;2023-02-22T02:00:39;99376.38;;;6.80;49.10
55317;BME280;41178;48.956;8.130;2023-02-22T02:05:42;99380.44;;;7.15;48.14
55317;BME280;41178;48.956;8.130;2023-02-22T02:10:44;99362.59;;;6.68;49.14
55317;BME280;41178;48.956;8.130;2023-02-22T02:15:46;99360.09;;;6.75;48.80
55317;BME280;41178;48.956;8.130;2023-02-22T02:47:13;99331.91;;;6.33;50.52
55317;BME280;41178;48.956;8.130;2023-02-22T02:52:18;99324.69;;;6.91;50.09
55317;BME280;41178;48.956;8.130;2023-02-22T02:57:21;99322.78;;;6.11;51.50
55317;BME280;41178;48.956;8.130;2023-02-22T03:19:10;99311.16;;;6.03;51.33
55317;BME280;41178;48.956;8.130;2023-02-22T03:29:04;99313.16;;;5.85;50.35
55317;BME280;41178;48.956;8.130;2023-02-22T03:34:12;99318.09;;;6.46;49.54
55317;BME280;41178;48.956;8.130;2023-02-22T03:39:16;99314.47;;;5.97;51.25
55317;BME280;41178;48.956;8.130;2023-02-22T03:44:23;99299.81;;;5.52;51.23
55317;BME280;41178;48.956;8.130;2023-02-22T03:49:38;99315.97;;;5.92;50.15
55317;BME280;41178;48.956;8.130;2023-02-22T03:54:40;99327.44;;;6.09;49.43
55317;BME280;41178;48.956;8.130;2023-02-22T03:59:42;99325.28;;;5.79;49.47
55317;BME280;41178;48.956;8.130;2023-02-22T04:04:46;99332.75;;;6.17;49.41
55317;BME280;41178;48.956;8.130;2023-02-22T04:09:48;99319.28;;;5.77;49.63
55317;BME280;41178;48.956;8.130;2023-02-22T04:14:50;99330.75;;;6.43;48.48
55317;BME280;41178;48.956;8.130;2023-02-22T04:19:52;99304.50;;;5.07;50.54
55317;BME280;41178;48.956;8.130;2023-02-22T04:24:54;99305.47;;;5.06;50.88
55317;BME280;41178;48.956;8.130;2023-02-22T04:30:20;99305.56;;;5.31;51.21
55317;BME280;41178;48.956;8.130;2023-02-22T04:35:22;99250.97;;;4.17;53.92
55317;BME280;41178;48.956;8.130;2023-02-22T04:40:24;99232.88;;;3.60;54.44
55317;BME280;41178;48.956;8.130;2023-02-22T04:45:26;99275.91;;;4.06;52.96
55317;BME280;41178;48.956;8.130;2023-02-22T04:50:28;99302.19;;;5.12;52.14
55317;BME280;41178;48.956;8.130;2023-02-22T04:55:29;99295.81;;;4.89;52.31
55317;BME280;41178;48.956;8.130;2023-02-22T05:00:31;99299.47;;;4.62;52.60
55317;BME280;41178;48.956;8.130;2023-02-22T05:05:33;99308.34;;;4.44;52.36
55317;BME280;41178;48.956;8.130;2023-02-22T05:10:35;99288.63;;;4.47;53.85
55317;BME280;41178;48.956;8.130;2023-02-22T05:15:37;99318.94;;;5.80;51.38
55317;BME280;41178;48.956;8.130;2023-02-22T05:20:39;99345.09;;;5.08;51.87
55317;BME280;41178;48.956;8.130;2023-02-22T05:25:41;99332.91;;;5.74;51.32
55317;BME280;41178;48.956;8.130;2023-02-22T05:30:42;99341.78;;;5.57;51.80
55317;BME280;41178;48.956;8.130;2023-02-22T05:35:44;99332.72;;;4.82;53.10
55317;BME280;41178;48.956;8.130;2023-02-22T05:40:46;99325.66;;;5.33;52.65
55317;BME280;41178;48.956;8.130;2023-02-22T05:45:48;99333.66;;;5.07;52.77
55317;BME280;41178;48.956;8.130;2023-02-22T05:50:50;99325.25;;;6.45;50.61
55317;BME280;41178;48.956;8.130;2023-02-22T05:55:51;99385.81;;;5.33;51.66
55317;BME280;41178;48.956;8.130;2023-02-22T06:00:53;99368.72;;;5.27;52.47
55317;BME280;41178;48.956;8.130;2023-02-22T06:05:55;99329.22;;;6.41;50.49
55317;BME280;41178;48.956;8.130;2023-02-22T06:10:58;99369.59;;;6.44;49.97
55317;BME280;41178;48.956;8.130;2023-02-22T06:16:01;99366.06;;;4.40;53.63
55317;BME280;41178;48.956;8.130;2023-02-22T06:21:08;99318.47;;;3.69;55.32
55317;BME280;41178;48.956;8.130;2023-02-22T06:26:10;99283.47;;;3.11;56.68
55317;BME280;41178;48.956;8.130;2023-02-22T06:31:12;99287.88;;;2.93;57.78
55317;BME280;41178;48.956;8.130;2023-02-22T06:36:13;99360.88;;;5.52;52.59
55317;BME280;41178;48.956;8.130;2023-02-22T06:41:15;99391.50;;;5.46;51.93
55317;BME280;41178;48.956;8.130;2023-02-22T06:46:18;99404.41;;;5.33;51.98
55317;BME280;41178;48.956;8.130;2023-02-22T06:51:21;99397.00;;;5.87;51.25
55317;BME280;41178;48.956;8.130;2023-02-22T06:56:23;99411.34;;;4.91;52.95
55317;BME280;41178;48.956;8.130;2023-02-22T07:01:25;99383.56;;;3.97;53.96
55317;BME280;41178;48.956;8.130;2023-02-22T07:06:28;99364.56;;;3.48;55.98
55317;BME280;41178;48.956;8.130;2023-02-22T07:11:29;99340.31;;;2.87;56.79
55317;BME280;41178;48.956;8.130;2023-02-22T07:16:31;99373.53;;;3.27;57.17
55317;BME280;41178;48.956;8.130;2023-02-22T07:21:34;99337.00;;;2.09;59.45
55317;BME280;41178;48.956;8.130;2023-02-22T07:26:40;99360.03;;;3.31;58.25
55317;BME280;41178;48.956;8.130;2023-02-22T07:31:42;99379.81;;;2.89;57.61
55317;BME280;41178;48.956;8.130;2023-02-22T07:36:44;99376.31;;;2.88;56.81
55317;BME280;41178;48.956;8.130;2023-02-22T07:41:45;99371.81;;;2.61;57.50
55317;BME280;41178;48.956;8.130;2023-02-22T07:46:48;99382.16;;;3.02;56.76
55317;BME280;41178;48.956;8.130;2023-02-22T07:51:50;99380.84;;;3.16;56.36
55317;BME280;41178;48.956;8.130;2023-02-22T07:56:52;99389.34;;;3.19;56.30
55317;BME280;41178;48.956;8.130;2023-02-22T08:01:54;99389.56;;;3.26;56.28
55317;BME280;41178;48.956;8.130;2023-02-22T08:06:56;99404.13;;;3.40;55.97
55317;BME280;41178;48.956;8.130;2023-02-22T08:11:57;99382.56;;;4.79;54.90
55317;BME280;41178;48.956;8.130;2023-02-22T08:16:59;99396.78;;;5.38;53.20
55317;BME280;41178;48.956;8.130;2023-02-22T08:22:01;99440.91;;;5.05;52.79
55317;BME280;41178;48.956;8.130;2023-02-22T08:27:03;99392.00;;;6.09;52.00
55317;BME280;41178;48.956;8.130;2023-02-22T08:32:05;99428.69;;;5.97;51.51
55317;BME280;41178;48.956;8.130;2023-02-22T08:37:07;99428.25;;;6.68;50.47
55317;BME280;41178;48.956;8.130;2023-02-22T08:42:09;99504.28;;;5.68;52.20
55317;BME280;41178;48.956;8.130;2023-02-22T08:47:11;99478.25;;;6.39;51.03
55317;BME280;41178;48.956;8.130;2023-02-22T08:52:13;99437.38;;;7.06;50.15
55317;BME280;41178;48.956;8.130;2023-02-22T08:57:15;99488.06;;;7.05;49.36
55317;BME280;41178;48.956;8.130;2023-02-22T09:02:19;99451.28;;;7.64;49.22
55317;BME280;41178;48.956;8.130;2023-02-22T09:07:22;99523.47;;;6.72;49.88
55317;BME280;41178;48.956;8.130;2023-02-22T09:12:25;99447.56;;;8.13;48.39
55317;BME280;41178;48.956;8.130;2023-02-22T09:17:26;99473.84;;;7.93;48.76
55317;BME280;41178;48.956;8.130;2023-02-22T09:22:28;99514.59;;;7.46;49.97
55317;BME280;41178;48.956;8.130;2023-02-22T09:27:30;99533.56;;;6.36;51.12
55317;BME280;41178;48.956;8.130;2023-02-22T09:32:32;99432.16;;;8.70;47.94
55317;BME280;41178;48.956;8.130;2023-02-22T09:37:34;99471.22;;;8.39;48.12
55317;BME280;41178;48.956;8.130;2023-02-22T09:42:44;99434.16;;;9.50;46.98
55317;BME280;41178;48.956;8.130;2023-02-22T09:47:52;99442.22;;;9.72;47.36
55317;BME280;41178;48.956;8.130;2023-02-22T09:53:01;99450.25;;;8.97;48.06
55317;BME280;41178;48.956;8.130;2023-02-22T09:58:34;99458.53;;;8.88;47.44
55317;BME280;41178;48.956;8.130;2023-02-22T10:08:55;99447.19;;;9.75;46.22
55317;BME280;41178;48.956;8.130;2023-02-22T10:35:29;99428.78;;;10.17;45.67
55317;BME280;41178;48.956;8.130;2023-02-22T10:40:33;99437.53;;;11.03;45.01
55317;BME280;41178;48.956;8.130;2023-02-22T10:45:36;99404.22;;;10.56;45.55
55317;BME280;41178;48.956;8.130;2023-02-22T10:50:40;99404.78;;;10.73;44.93
55317;BME280;41178;48.956;8.130;2023-02-22T11:06:31;99447.94;;;8.56;49.05
55317;BME280;41178;48.956;8.130;2023-02-22T11:11:33;99394.25;;;9.64;47.23
55317;BME280;41178;48.956;8.130;2023-02-22T11:16:38;99439.13;;;9.09;48.38
55317;BME280;41178;48.956;8.130;2023-02-22T11:21:41;99409.19;;;9.58;48.00
55317;BME280;41178;48.956;8.130;2023-02-22T11:26:54;99409.69;;;9.47;47.95
55317;BME280;41178;48.956;8.130;2023-02-22T11:31:57;99378.50;;;9.69;47.80
55317;BME280;41178;48.956;8.130;2023-02-22T11:37:18;99361.44;;;10.06;47.35
55317;BME280;41178;48.956;8.130;2023-02-22T11:42:25;99353.22;;;9.71;47.25
55317;BME280;41178;48.956;8.130;2023-02-22T11:47:27;99363.31;;;9.54;46.48
55317;BME280;41178;48.956;8.130;2023-02-22T11:52:38;99342.75;;;10.63;46.25
55317;BME280;41178;48.956;8.130;2023-02-22T11:58:00;99350.56;;;9.71;45.99
55317;BME280;41178;48.956;8.130;2023-02-22T12:03:17;99345.22;;;10.64;45.51
55317;BME280;41178;48.956;8.130;2023-02-22T12:24:23;99339.78;;;11.62;45.32
55317;BME280;41178;48.956;8.130;2023-02-22T12:29:47;99313.53;;;11.51;45.79
55317;BME280;41178;48.956;8.130;2023-02-22T12:34:58;99303.59;;;11.32;46.25
55317;BME280;41178;48.956;8.130;2023-02-22T12:45:31;99315.34;;;10.32;46.87
55317;BME280;41178;48.956;8.130;2023-02-22T12:50:35;99276.28;;;11.01;45.12
55317;BME280;41178;48.956;8.130;2023-02-22T12:55:50;99313.75;;;10.66;46.63
55317;BME280;41178;48.956;8.130;2023-02-22T13:01:05;99324.59;;;10.86;46.87
55317;BME280;41178;48.956;8.130;2023-02-22T13:22:44;99316.97;;;10.55;46.50
55317;BME280;41178;48.956;8.130;2023-02-22T13:54:06;99270.75;;;11.78;44.84
55317;BME280;41178;48.956;8.130;2023-02-22T14:09:50;99300.63;;;12.35;43.85
55317;BME280;41178;48.956;8.130;2023-02-22T14:20:34;99264.94;;;11.81;44.22
55317;BME280;41178;48.956;8.130;2023-02-22T14:25:41;99269.31;;;12.02;44.39
55317;BME280;41178;48.956;8.130;2023-02-22T14:30:43;99255.31;;;11.18;46.21
55317;BME280;41178;48.956;8.130;2023-02-22T14:35:45;99257.56;;;12.03;45.50
55317;BME280;41178;48.956;8.130;2023-02-22T14:40:51;99235.63;;;11.46;47.30
55317;BME280;41178;48.956;8.130;2023-02-22T14:45:56;99249.25;;;12.51;46.24
55317;BME280;41178;48.956;8.130;2023-02-22T14:56:29;99205.50;;;11.24;47.65
55317;BME280;41178;48.956;8.130;2023-02-22T15:01:37;99202.06;;;11.84;47.21
55317;BME280;41178;48.956;8.130;2023-02-22T15:07:00;99219.56;;;12.13;47.47
55317;BME280;41178;48.956;8.130;2023-02-22T15:22:23;99188.63;;;12.24;47.75
55317;BME280;41178;48.956;8.130;2023-02-22T15:27:26;99171.34;;;11.59;48.17
55317;BME280;41178;48.956;8.130;2023-02-22T15:32:33;99183.00;;;12.45;47.59
55317;BME280;41178;48.956;8.130;2023-02-22T15:37:36;99177.50;;;12.13;48.03
55317;BME280;41178;48.956;8.130;2023-02-22T15:42:47;99172.16;;;12.00;48.72
55317;BME280;41178;48.956;8.130;2023-02-22T15:47:49;99176.28;;;12.03;48.46
55317;BME280;41178;48.956;8.130;2023-02-22T15:53:06;99183.47;;;12.22;48.74
55317;BME280;41178;48.956;8.130;2023-02-22T15:58:21;99180.94;;;12.47;48.35
55317;BME280;41178;48.956;8.130;2023-02-22T16:03:24;99183.47;;;12.22;48.71
55317;BME280;41178;48.956;8.130;2023-02-22T16:09:00;99187.53;;;12.51;48.55
55317;BME280;41178;48.956;8.130;2023-02-22T16:14:30;99192.91;;;12.38;48.59
55317;BME280;41178;48.956;8.130;2023-02-22T16:19:40;99163.31;;;11.73;49.78
55317;BME280;41178;48.956;8.130;2023-02-22T16:24:43;99185.50;;;11.26;50.87
55317;BME280;41178;48.956;8.130;2023-02-22T16:35:27;99176.94;;;11.85;50.38
55317;BME280;41178;48.956;8.130;2023-02-22T16:40:34;99168.00;;;12.11;49.83
55317;BME280;41178;48.956;8.130;2023-02-22T16:45:37;99175.47;;;11.95;50.39
55317;BME280;41178;48.956;8.130;2023-02-22T16:50:41;99185.38;;;11.88;50.47
55317;BME280;41178;48.956;8.130;2023-02-22T16:55:43;99190.13;;;11.73;50.02
55317;BME280;41178;48.956;8.130;2023-02-22T17:00:45;99181.44;;;11.77;49.81
55317;BME280;41178;48.956;8.130;2023-02-22T17:05:46;99192.38;;;11.83;50.07
55317;BME280;41178;48.956;8.130;2023-02-22T17:10:49;99180.34;;;11.18;50.46
55317;BME280;41178;48.956;8.130;2023-02-22T17:15:52;99196.50;;;11.92;49.28
55317;BME280;41178;48.956;8.130;2023-02-22T17:20:57;99202.28;;;10.80;51.12
55317;BME280;41178;48.956;8.130;2023-02-22T17:26:00;99239.91;;;11.27;51.01
55317;BME280;41178;48.956;8.130;2023-02-22T17:31:05;99231.41;;;10.27;53.12
55317;BME280;41178;48.956;8.130;2023-02-22T17:36:07;99229.78;;;10.67;52.62
55317;BME280;41178;48.956;8.130;2023-02-22T17:41:09;99202.34;;;11.00;52.11
55317;BME280;41178;48.956;8.130;2023-02-22T17:46:11;99194.84;;;11.71;51.06
55317;BME280;41178;48.956;8.130;2023-02-22T17:51:13;99211.63;;;11.04;51.85
55317;BME280;41178;48.956;8.130;2023-02-22T17:56:16;99233.22;;;10.96;52.05
55317;BME280;41178;48.956;8.130;2023-02-22T18:01:27;99194.78;;;11.17;51.45
55317;BME280;41178;48.956;8.130;2023-02-22T18:06:29;99218.47;;;11.27;52.52
55317;BME280;41178;48.956;8.130;2023-02-22T18:11:33;99210.22;;;11.09;52.39
55317;BME280;41178;48.956;8.130;2023-02-22T18:16:35;99238.13;;;10.51;54.35
55317;BME280;41178;48.956;8.130;2023-02-22T18:21:39;99207.59;;;11.55;52.51
55317;BME280;41178;48.956;8.130;2023-02-22T18:26:41;99213.41;;;11.86;50.54
55317;BME280;41178;48.956;8.130;2023-02-22T18:31:43;99215.06;;;12.00;50.65
55317;BME280;41178;48.956;8.130;2023-02-22T18:36:45;99236.84;;;12.64;49.20
55317;BME280;41178;48.956;8.130;2023-02-22T18:41:47;99230.94;;;12.08;51.07
55317;BME280;41178;48.956;8.130;2023-02-22T18:46:49;99220.34;;;11.33;52.25
55317;BME280;41178;48.956;8.130;2023-02-22T18:51:51;99232.19;;;11.86;51.55
55317;BME280;41178;48.956;8.130;2023-02-22T18:56:52;99188.03;;;11.48;51.61
55317;BME280;41178;48.956;8.130;2023-02-22T19:01:54;99220.84;;;11.63;52.01
55317;BME280;41178;48.956;8.130;2023-02-22T19:06:56;99196.88;;;11.42;52.13
55317;BME280;41178;48.956;8.130;2023-02-22T19:11:58;99212.59;;;11.72;51.81
55317;BME280;41178;48.956;8.130;2023-02-22T19:16:59;99227.00;;;11.77;51.51
55317;BME280;41178;48.956;8.130;2023-02-22T19:22:03;99223.53;;;11.77;51.90
55317;BME280;41178;48.956;8.130;2023-02-22T19:27:04;99210.00;;;11.17;52.65
55317;BME280;41178;48.956;8.130;2023-02-22T19:32:08;99205.72;;;12.29;50.72
55317;BME280;41178;48.956;8.130;2023-02-22T19:37:11;99240.56;;;13.15;49.14
55317;BME280;41178;48.956;8.130;2023-02-22T19:42:13;99185.19;;;11.76;50.67
55317;BME280;41178;48.956;8.130;2023-02-22T19:47:15;99215.41;;;12.50;49.76
55317;BME280;41178;48.956;8.130;2023-02-22T19:52:17;99197.28;;;11.39;51.07
55317;BME280;41178;48.956;8.130;2023-02-22T19:57:19;99231.34;;;11.98;51.65
55317;BME280;41178;48.956;8.130;2023-02-22T20:02:24;99239.00;;;11.88;51.75
55317;BME280;41178;48.956;8.130;2023-02-22T20:07:27;99224.50;;;12.36;50.53
55317;BME280;41178;48.956;8.130;2023-02-22T20:12:30;99271.31;;;13.19;48.91
55317;BME280;41178;48.956;8.130;2023-02-22T20:17:31;99238.53;;;12.25;50.31
55317;BME280;41178;48.956;8.130;2023-02-22T20:22:34;99235.19;;;12.63;50.29
55317;BME280;41178;48.956;8.130;2023-02-22T20:27:36;99259.75;;;12.66;49.93
55317;BME280;41178;48.956;8.130;2023-02-22T20:32:38;99234.59;;;11.47;51.99
55317;BME280;41178;48.956;8.130;2023-02-22T20:37:40;99241.84;;;12.27;50.73
55317;BME280;41178;48.956;8.130;2023-02-22T20:42:43;99251.44;;;12.81;49.88
55317;BME280;41178;48.956;8.130;2023-02-22T20:47:45;99257.75;;;12.02;51.08
55317;BME280;41178;48.956;8.130;2023-02-22T20:52:46;99235.47;;;11.81;51.41
55317;BME280;41178;48.956;8.130;2023-02-22T20:57:48;99229.66;;;12.24;50.24
55317;BME280;41178;48.956;8.130;2023-02-22T21:02:50;99231.16;;;11.93;51.14
55317;BME280;41178;48.956;8.130;2023-02-22T21:07:52;99235.88;;;12.11;50.84
55317;BME280;41178;48.956;8.130;2023-02-22T21:12:54;99225.34;;;11.56;51.94
55317;BME280;41178;48.956;8.130;2023-02-22T21:17:59;99264.50;;;12.64;50.40
55317;BME280;41178;48.956;8.130;2023-02-22T21:23:00;99283.81;;;10.84;54.53
55317;BME280;41178;48.956;8.130;2023-02-22T21:28:04;99277.28;;;9.59;57.98
55317;BME280;41178;48.956;8.130;2023-02-22T21:33:06;99261.53;;;10.42;56.57
55317;BME280;41178;48.956;8.130;2023-02-22T21:38:09;99223.47;;;11.57;54.09
55317;BME280;41178;48.956;8.130;2023-02-22T21:43:14;99229.25;;;12.27;51.75
55317;BME280;41178;48.956;8.130;2023-02-22T21:48:17;99234.03;;;12.12;52.75
55317;BME280;41178;48.956;8.130;2023-02-22T21:53:18;99279.56;;;10.62;55.58
55317;BME280;41178;48.956;8.130;2023-02-22T21:58:20;99214.66;;;11.90;52.96
55317;BME280;41178;48.956;8.130;2023-02-22T22:03:25;99270.97;;;11.15;54.36
55317;BME280;41178;48.956;8.130;2023-02-22T22:08:28;99230.16;;;10.64;55.02
55317;BME280;41178;48.956;8.130;2023-02-22T22:13:32;99302.31;;;10.51;56.96
55317;BME280;41178;48.956;8.130;2023-02-22T22:18:38;99249.06;;;10.21;57.22
55317;BME280;41178;48.956;8.130;2023-02-22T22:23:41;99229.53;;;10.62;56.41
55317;BME280;41178;48.956;8.130;2023-02-22T22:28:46;99243.09;;;10.19;57.24
55317;BME280;41178;48.956;8.130;2023-02-22T22:33:48;99260.81;;;9.99;59.49
55317;BME280;41178;48.956;8.130;2023-02-22T22:38:50;99244.59;;;8.24;62.92
55317;BME280;41178;48.956;8.130;2023-02-22T22:43:53;99285.19;;;9.31;61.23
55317;BME280;41178;48.956;8.130;2023-02-22T22:48:55;99252.59;;;8.39;62.15
55317;BME280;41178;48.956;8.130;2023-02-22T22:53:58;99281.22;;;9.05;61.73
55317;BME280;41178;48.956;8.130;2023-02-22T22:59:02;99253.00;;;9.17;60.89
55317;BME280;41178;48.956;8.130;2023-02-22T23:04:10;99217.63;;;11.20;56.95
55317;BME280;41178;48.956;8.130;2023-02-22T23:09:18;99243.50;;;9.51;58.77
55317;BME280;41178;48.956;8.130;2023-02-22T23:14:27;99253.00;;;11.63;55.13
55317;BME280;41178;48.956;8.130;2023-02-22T23:19:34;99241.66;;;11.00;56.17
55317;BME280;41178;48.956;8.130;2023-02-22T23:24:36;99289.72;;;11.90;53.94
55317;BME280;41178;48.956;8.130;2023-02-22T23:29:40;99273.66;;;11.15;56.36
55317;BME280;41178;48.956;8.130;2023-02-22T23:34:41;99306.19;;;9.92;59.28
55317;BME280;41178;48.956;8.130;2023-02-22T23:39:43;99267.97;;;10.83;57.19
55317;BME280;41178;48.956;8.130;2023-02-22T23:44:46;99324.09;;;13.00;51.58
55317;BME280;41178;48.956;8.130;2023-02-22T23:49:48;99315.09;;;12.61;52.06
55317;BME280;41178;48.956;8.130;2023-02-22T23:54:50;99346.28;;;13.40;50.54
55317;BME280;41178;48.956;8.130;2023-02-22T23:59:54;99290.94;;;12.41;52.11
